createdAt,value
2018-06-09T00:01:24.250Z,63.00
2018-06-09T00:03:52.422Z,63.40
2018-06-09T00:06:20.600Z,64.00
2018-06-09T00:08:49.413Z,63.80
2018-06-09T00:11:17.577Z,64.50
2018-06-09T00:13:45.840Z,65.20
2018-06-09T00:16:14.038Z,65.60
2018-06-09T00:18:42.300Z,65.90
2018-06-09T00:21:10.736Z,66.30
2018-06-09T00:23:38.961Z,67.00
2018-06-09T00:26:07.098Z,67.50
2018-06-09T00:28:35.274Z,67.80
2018-06-09T00:31:03.552Z,68.10
2018-06-09T00:33:31.736Z,68.70
2018-06-09T00:35:59.927Z,69.50
2018-06-09T00:38:28.168Z,69.00
2018-06-09T00:40:56.700Z,69.70
2018-06-09T00:43:24.936Z,70.30
2018-06-09T00:45:53.290Z,70.90
2018-06-09T00:48:21.510Z,70.80
2018-06-09T00:50:49.666Z,71.90
2018-06-09T00:53:17.910Z,71.60
2018-06-09T00:55:46.271Z,72.80
2018-06-09T00:58:14.507Z,72.60
2018-06-09T01:00:42.712Z,73.00
2018-06-09T01:03:11.293Z,74.00
2018-06-09T01:05:39.495Z,74.40
2018-06-09T01:08:07.394Z,74.60
2018-06-09T01:10:35.810Z,75.10
2018-06-09T01:13:04.014Z,75.40
2018-06-09T01:15:32.199Z,76.50
2018-06-09T01:18:00.400Z,76.60
2018-06-09T01:20:28.609Z,76.80
2018-06-09T01:22:56.885Z,77.30
2018-06-09T01:25:25.291Z,77.70
2018-06-09T01:27:53.476Z,77.70
2018-06-09T01:30:21.616Z,77.80
2018-06-09T01:32:49.839Z,78.00
2018-06-09T01:35:18.071Z,77.80
2018-06-09T01:37:46.481Z,78.00
2018-06-09T01:40:14.655Z,77.80
2018-06-09T01:42:42.854Z,78.50
2018-06-09T01:45:11.564Z,78.50
2018-06-09T01:50:07.707Z,78.80
2018-06-09T01:52:35.897Z,79.60
2018-06-09T01:55:04.057Z,80.20
2018-06-09T01:57:32.228Z,81.00
2018-06-09T02:02:28.613Z,81.40
2018-06-09T02:04:56.753Z,82.70
2018-06-09T02:07:24.929Z,83.70
2018-06-09T02:09:53.135Z,85.30
2018-06-09T02:12:21.291Z,85.40
2018-06-09T02:14:49.475Z,86.20
2018-06-09T02:17:17.718Z,86.70
2018-06-09T02:19:45.907Z,87.00
2018-06-09T02:22:14.100Z,87.70
2018-06-09T02:24:42.278Z,87.20
2018-06-09T02:27:10.410Z,88.20
2018-06-09T02:29:38.606Z,87.90
2018-06-09T02:34:35.106Z,88.60
2018-06-09T02:37:03.366Z,89.10
2018-06-09T02:39:31.533Z,89.90
2018-06-09T02:41:59.730Z,89.60
2018-06-09T02:44:27.958Z,90.20
2018-06-09T02:46:56.186Z,90.40
2018-06-09T02:49:24.438Z,90.60
2018-06-09T02:51:52.762Z,90.80
2018-06-09T02:54:21.174Z,91.00
2018-06-09T02:56:49.350Z,90.80
2018-06-09T02:59:17.745Z,90.60
2018-06-09T03:01:45.902Z,90.30
2018-06-09T03:04:14.091Z,89.70
2018-06-09T03:06:42.255Z,89.20
2018-06-09T03:09:10.598Z,89.60
2018-06-09T03:11:38.804Z,87.50
2018-06-09T03:14:07.183Z,86.90
2018-06-09T03:16:35.367Z,84.70
2018-06-09T03:19:03.841Z,82.50
2018-06-09T03:21:32.050Z,78.30
2018-06-09T03:24:00.519Z,76.10
2018-06-09T03:26:28.713Z,74.00
2018-06-09T03:28:56.946Z,72.60
2018-06-09T03:31:25.626Z,71.60
2018-06-09T03:33:53.818Z,69.10
2018-06-09T03:36:22.229Z,66.10
2018-06-09T03:38:50.398Z,63.00
2018-06-09T03:41:18.876Z,58.40
2018-06-09T03:43:47.090Z,56.10
2018-06-09T03:46:15.285Z,52.20
2018-06-09T03:48:43.470Z,49.80
2018-06-09T03:51:11.699Z,48.10
2018-06-09T03:53:39.887Z,47.00
2018-06-09T03:56:08.267Z,46.30
2018-06-09T03:58:36.491Z,46.20
2018-06-09T04:01:04.919Z,45.20
2018-06-09T04:03:33.377Z,44.50
2018-06-09T04:06:01.615Z,43.70
2018-06-09T04:08:29.763Z,42.70
2018-06-09T04:10:58.067Z,41.70
2018-06-09T04:13:26.217Z,41.20
2018-06-09T04:15:54.408Z,40.10
2018-06-09T04:18:22.611Z,39.30
2018-06-09T04:20:51.037Z,38.70
2018-06-09T04:23:19.823Z,38.20
2018-06-09T04:25:48.001Z,37.90
2018-06-09T04:28:16.240Z,37.50
2018-06-09T04:30:44.455Z,36.60
2018-06-09T04:33:12.685Z,35.30
2018-06-09T04:35:40.983Z,34.00
2018-06-09T04:38:09.191Z,32.60
2018-06-09T04:43:06.406Z,30.20
2018-06-09T04:45:34.548Z,30.00
2018-06-09T04:48:03.061Z,29.60
2018-06-09T04:50:31.547Z,29.30
2018-06-09T04:52:59.840Z,28.70
2018-06-09T04:55:28.070Z,28.40
2018-06-09T04:57:56.443Z,27.90
2018-06-09T05:02:52.821Z,27.10
2018-06-09T05:05:21.072Z,26.70
2018-06-09T05:07:49.410Z,26.00
2018-06-09T05:10:17.624Z,25.90
2018-06-09T05:15:14.097Z,25.40
2018-06-09T05:17:42.306Z,25.50
2018-06-09T05:20:10.507Z,25.40
2018-06-09T05:22:38.689Z,24.80
2018-06-09T05:25:06.869Z,24.60
2018-06-09T05:27:35.102Z,24.10
2018-06-09T05:30:03.348Z,23.60
2018-06-09T05:32:31.718Z,23.60
2018-06-09T05:34:59.903Z,23.40
2018-06-09T05:37:28.105Z,23.60
2018-06-09T05:39:56.302Z,23.70
2018-06-09T05:42:24.933Z,23.40
2018-06-09T05:44:53.139Z,23.60
2018-06-09T05:47:21.405Z,23.30
2018-06-09T05:49:49.692Z,23.50
2018-06-09T05:52:17.970Z,23.30
2018-06-09T05:54:46.129Z,23.40
2018-06-09T05:57:14.331Z,22.80
2018-06-09T05:59:42.511Z,23.00
2018-06-09T06:02:10.702Z,22.50
2018-06-09T06:04:39.001Z,22.80
2018-06-09T06:07:07.319Z,23.30
2018-06-09T06:09:35.671Z,23.40
2018-06-09T06:12:03.983Z,23.80
2018-06-09T06:14:32.182Z,23.60
2018-06-09T06:17:00.443Z,23.60
2018-06-09T06:19:28.645Z,22.90
2018-06-09T06:21:56.814Z,22.70
2018-06-09T06:24:24.985Z,22.00
2018-06-09T06:26:53.163Z,21.60
2018-06-09T06:29:21.627Z,21.50
2018-06-09T06:31:49.807Z,21.70
2018-06-09T06:34:18.039Z,21.10
2018-06-09T06:36:46.337Z,21.40
2018-06-09T06:39:14.593Z,21.10
2018-06-09T06:41:42.869Z,21.60
2018-06-09T06:44:11.059Z,21.10
2018-06-09T06:46:39.236Z,20.90
2018-06-09T06:49:07.442Z,20.60
2018-06-09T06:51:35.765Z,20.40
2018-06-09T06:54:03.988Z,20.50
2018-06-09T06:56:32.218Z,20.40
2018-06-09T06:59:00.460Z,20.20
2018-06-09T07:01:28.746Z,20.60
2018-06-09T07:03:56.941Z,20.40
2018-06-09T07:06:25.288Z,20.00
2018-06-09T07:08:53.633Z,20.10
2018-06-09T07:11:21.904Z,20.90
2018-06-09T07:13:50.381Z,20.60
2018-06-09T07:16:18.644Z,20.30
2018-06-09T07:18:47.030Z,20.50
2018-06-09T07:21:15.229Z,20.50
2018-06-09T07:23:43.563Z,20.60
2018-06-09T07:26:11.808Z,20.70
2018-06-09T07:28:40.287Z,20.60
2018-06-09T07:31:08.478Z,21.20
2018-06-09T07:33:36.724Z,21.30
2018-06-09T07:36:05.042Z,21.40
2018-06-09T07:38:33.242Z,21.30
2018-06-09T07:41:01.505Z,21.80
2018-06-09T07:43:29.792Z,21.60
2018-06-09T07:45:57.979Z,21.70
2018-06-09T07:48:26.256Z,22.30
2018-06-09T07:50:54.489Z,22.40
2018-06-09T07:53:22.720Z,23.20
2018-06-09T07:55:51.210Z,23.60
2018-06-09T07:58:19.654Z,23.30
2018-06-09T08:00:47.838Z,24.20
2018-06-09T08:03:16.156Z,24.30
2018-06-09T08:05:44.568Z,24.10
2018-06-09T08:08:12.838Z,24.00
2018-06-09T08:10:41.145Z,24.90
2018-06-09T08:13:09.506Z,24.50
2018-06-09T08:15:37.773Z,24.80
2018-06-09T08:18:06.079Z,25.20
2018-06-09T08:20:34.389Z,24.90
2018-06-09T08:23:02.596Z,24.80
2018-06-09T08:25:30.874Z,25.10
2018-06-09T08:27:59.142Z,25.30
2018-06-09T08:30:27.423Z,25.30
2018-06-09T08:32:55.621Z,25.40
2018-06-09T08:35:23.840Z,25.40
2018-06-09T08:37:52.059Z,25.60
2018-06-09T08:40:20.502Z,26.60
2018-06-09T08:42:48.779Z,27.30
2018-06-09T08:45:17.392Z,28.00
2018-06-09T08:47:45.592Z,28.20
2018-06-09T08:50:13.789Z,28.50
2018-06-09T08:52:42.020Z,28.70
2018-06-09T08:55:10.301Z,29.40
2018-06-09T08:57:38.696Z,29.50
2018-06-09T09:00:07.043Z,29.60
2018-06-09T09:02:35.854Z,29.90
2018-06-09T09:05:04.145Z,30.00
2018-06-09T09:07:32.475Z,30.50
2018-06-09T09:10:00.672Z,30.50
2018-06-09T09:12:28.823Z,30.00
2018-06-09T09:14:58.391Z,30.60
2018-06-09T09:17:26.712Z,30.80
2018-06-09T09:19:54.945Z,31.30
2018-06-09T09:22:23.233Z,31.00
2018-06-09T09:24:51.516Z,31.20
2018-06-09T09:27:19.859Z,31.80
2018-06-09T09:29:48.302Z,31.60
2018-06-09T09:32:16.608Z,31.90
2018-06-09T09:34:44.903Z,32.00
2018-06-09T09:37:13.342Z,32.20
2018-06-09T09:39:41.557Z,31.90
2018-06-09T09:42:09.794Z,32.20
2018-06-09T09:44:37.995Z,32.40
2018-06-09T09:47:06.404Z,31.40
2018-06-09T09:49:35.013Z,31.10
2018-06-09T09:52:03.257Z,31.70
2018-06-09T09:54:31.579Z,31.60
2018-06-09T09:56:59.782Z,31.60
2018-06-09T09:59:28.433Z,31.20
2018-06-09T10:01:56.646Z,31.70
2018-06-09T10:04:24.927Z,32.10
2018-06-09T10:06:53.123Z,31.20
2018-06-09T10:09:21.498Z,32.00
2018-06-09T10:11:49.789Z,32.40
2018-06-09T10:14:18.569Z,32.60
2018-06-09T10:16:46.743Z,31.20
2018-06-09T10:19:15.222Z,31.50
2018-06-09T10:21:43.455Z,31.50
2018-06-09T10:24:11.697Z,32.20
2018-06-09T10:26:40.109Z,32.30
2018-06-09T10:29:08.323Z,32.50
2018-06-09T10:31:36.525Z,31.40
2018-06-09T10:34:04.843Z,31.10
2018-06-09T10:36:33.208Z,31.30
2018-06-09T10:39:01.441Z,32.00
2018-06-09T10:41:29.657Z,32.20
2018-06-09T10:43:57.877Z,32.20
2018-06-09T10:46:26.078Z,31.40
2018-06-09T10:48:54.304Z,30.20
2018-06-09T10:51:22.874Z,30.30
2018-06-09T10:53:51.102Z,31.30
2018-06-09T10:56:19.310Z,31.70
2018-06-09T10:58:47.518Z,31.10
2018-06-09T11:01:16.183Z,31.50
2018-06-09T11:03:44.418Z,31.30
2018-06-09T11:06:12.732Z,31.80
2018-06-09T11:08:41.182Z,31.80
2018-06-09T11:11:09.461Z,31.70
2018-06-09T11:13:37.684Z,31.60
2018-06-09T11:16:05.853Z,31.40
2018-06-09T11:18:34.555Z,31.80
2018-06-09T11:21:03.080Z,31.50
2018-06-09T11:23:31.441Z,31.80
2018-06-09T11:25:59.651Z,32.00
2018-06-09T11:28:27.927Z,31.60
2018-06-09T11:30:56.156Z,31.70
2018-06-09T11:33:24.858Z,31.60
2018-06-09T11:35:54.565Z,31.50
2018-06-09T11:38:22.805Z,31.60
2018-06-09T11:40:51.359Z,31.80
2018-06-09T11:43:19.953Z,31.50
2018-06-09T11:45:48.122Z,31.40
2018-06-09T11:48:16.417Z,31.70
2018-06-09T11:50:45.595Z,31.90
2018-06-09T11:53:13.968Z,31.70
2018-06-09T11:55:42.226Z,31.90
2018-06-09T11:58:10.981Z,31.70
2018-06-09T12:00:39.340Z,31.40
2018-06-09T12:03:07.547Z,31.80
2018-06-09T12:05:35.871Z,31.40
2018-06-09T12:08:04.024Z,31.50
2018-06-09T12:10:32.682Z,31.20
2018-06-09T12:13:00.928Z,31.20
2018-06-09T12:15:30.048Z,31.80
2018-06-09T12:17:58.249Z,32.00
2018-06-09T12:20:26.414Z,32.10
2018-06-09T12:22:54.562Z,31.90
2018-06-09T12:25:22.767Z,31.40
2018-06-09T12:27:51.051Z,31.40
2018-06-09T12:30:19.932Z,31.30
2018-06-09T12:32:48.339Z,31.00
2018-06-09T12:35:16.711Z,31.10
2018-06-09T12:37:44.946Z,32.10
2018-06-09T12:40:13.444Z,32.30
2018-06-09T12:42:41.682Z,32.60
2018-06-09T12:45:10.061Z,32.50
2018-06-09T12:47:38.266Z,32.90
2018-06-09T12:50:06.821Z,32.20
2018-06-09T12:52:35.098Z,33.00
2018-06-09T12:55:03.305Z,33.40
2018-06-09T12:57:31.513Z,32.80
2018-06-09T12:59:59.933Z,33.90
2018-06-09T13:02:28.213Z,33.10
2018-06-09T13:04:56.389Z,33.20
2018-06-09T13:07:24.669Z,33.40
2018-06-09T13:09:53.073Z,33.30
2018-06-09T13:12:21.437Z,33.70
2018-06-09T13:14:49.967Z,33.80
2018-06-09T13:17:18.287Z,33.50
2018-06-09T13:19:46.462Z,33.60
2018-06-09T13:22:14.856Z,33.60
2018-06-09T13:24:43.721Z,33.80
2018-06-09T13:27:11.924Z,34.10
2018-06-09T13:29:40.159Z,33.70
2018-06-09T13:32:08.734Z,33.00
2018-06-09T13:34:36.893Z,32.90
2018-06-09T13:37:05.729Z,34.40
2018-06-09T13:39:34.006Z,34.30
2018-06-09T13:42:02.453Z,34.20
2018-06-09T13:44:30.698Z,34.10
2018-06-09T13:46:59.230Z,34.10
2018-06-09T13:49:27.589Z,34.30
2018-06-09T13:54:24.894Z,34.50
2018-06-09T13:56:53.127Z,34.90
2018-06-09T13:59:21.444Z,34.70
2018-06-09T14:01:49.877Z,34.90
2018-06-09T14:04:18.108Z,34.50
2018-06-09T14:06:46.364Z,34.60
2018-06-09T14:09:14.917Z,34.60
2018-06-09T14:11:43.258Z,34.20
2018-06-09T14:14:11.671Z,34.70
2018-06-09T14:16:40.007Z,34.00
2018-06-09T14:19:08.849Z,34.10
2018-06-09T14:21:37.423Z,34.10
2018-06-09T14:24:05.743Z,34.80
2018-06-09T14:26:34.019Z,34.00
2018-06-09T14:29:02.250Z,34.00
2018-06-09T14:31:30.533Z,33.80
2018-06-09T14:33:58.753Z,33.90
2018-06-09T14:36:27.042Z,34.00
2018-06-09T14:38:55.272Z,34.20
2018-06-09T14:41:23.427Z,34.00
2018-06-09T14:43:51.616Z,34.00
2018-06-09T14:46:19.779Z,34.20
2018-06-09T14:48:47.987Z,34.20
2018-06-09T14:51:16.296Z,34.20
2018-06-09T14:53:44.524Z,34.30
2018-06-09T14:56:12.690Z,34.50
2018-06-09T14:58:40.915Z,34.70
2018-06-09T15:01:09.204Z,33.90
2018-06-09T15:03:37.459Z,33.90
2018-06-09T15:06:05.862Z,33.80
2018-06-09T15:08:34.040Z,34.30
2018-06-09T15:11:02.307Z,34.40
2018-06-09T15:13:30.570Z,34.10
2018-06-09T15:15:58.782Z,34.10
2018-06-09T15:18:26.954Z,33.90
2018-06-09T15:20:55.246Z,33.90
2018-06-09T15:23:23.436Z,33.30
2018-06-09T15:25:51.673Z,33.50
2018-06-09T15:28:19.914Z,33.70
2018-06-09T15:30:48.117Z,34.00
2018-06-09T15:33:17.057Z,34.20
2018-06-09T15:35:45.214Z,34.30
2018-06-09T15:38:13.459Z,34.10
2018-06-09T15:40:41.670Z,34.10
2018-06-09T15:43:09.929Z,34.40
2018-06-09T15:45:38.184Z,34.40
2018-06-09T15:48:06.397Z,34.80
2018-06-09T15:50:35.156Z,34.20
2018-06-09T15:53:03.377Z,33.90
2018-06-09T15:55:31.618Z,33.90
2018-06-09T15:57:59.830Z,33.90
2018-06-09T16:00:28.090Z,33.70
2018-06-09T16:02:56.325Z,33.90
2018-06-09T16:05:24.534Z,33.80
2018-06-09T16:07:52.835Z,34.00
2018-06-09T16:10:21.079Z,34.00
2018-06-09T16:12:49.441Z,34.40
2018-06-09T16:15:17.793Z,34.50
2018-06-09T16:17:46.093Z,34.60
2018-06-09T16:20:14.384Z,34.40
2018-06-09T16:22:43.160Z,34.80
2018-06-09T16:25:11.402Z,34.60
2018-06-09T16:27:39.981Z,35.00
2018-06-09T16:30:08.346Z,34.30
2018-06-09T16:32:36.577Z,34.50
2018-06-09T16:35:04.757Z,34.20
2018-06-09T16:37:32.920Z,34.30
2018-06-09T16:40:01.077Z,34.20
2018-06-09T16:42:29.284Z,34.60
2018-06-09T16:44:57.745Z,34.50
2018-06-09T16:47:26.079Z,34.80
2018-06-09T16:49:54.412Z,34.60
2018-06-09T16:52:22.675Z,34.90
2018-06-09T16:54:50.921Z,35.10
2018-06-09T16:57:20.119Z,35.20
2018-06-09T16:59:48.329Z,35.50
2018-06-09T17:02:16.844Z,35.00
2018-06-09T17:04:45.505Z,35.10
2018-06-09T17:07:20.508Z,35.20
2018-06-09T17:09:49.053Z,35.00
2018-06-09T17:12:17.229Z,35.00
2018-06-09T17:14:45.480Z,35.10
2018-06-09T17:17:13.726Z,35.50
2018-06-09T17:19:41.939Z,35.80
2018-06-09T17:22:10.645Z,35.20
2018-06-09T17:24:38.985Z,35.50
2018-06-09T17:27:07.195Z,35.70
2018-06-09T17:29:35.535Z,36.20
2018-06-09T17:32:04.084Z,36.30
2018-06-09T17:34:32.375Z,36.70
2018-06-09T17:37:00.638Z,36.50
2018-06-09T17:39:28.879Z,36.50
2018-06-09T17:41:57.086Z,36.40
2018-06-09T17:44:25.913Z,36.50
2018-06-09T17:46:54.175Z,36.60
2018-06-09T17:49:22.369Z,36.70
2018-06-09T17:51:50.616Z,36.70
2018-06-09T17:54:18.777Z,36.50
2018-06-09T17:56:46.955Z,36.70
2018-06-09T17:59:15.188Z,37.50
2018-06-09T18:01:43.359Z,37.20
2018-06-09T18:04:11.550Z,37.10
2018-06-09T18:06:39.916Z,37.60
2018-06-09T18:09:09.207Z,37.70
2018-06-09T18:11:37.488Z,37.80
2018-06-09T18:14:05.727Z,37.90
2018-06-09T18:16:34.081Z,37.90
2018-06-09T18:19:02.510Z,38.30
2018-06-09T18:21:30.734Z,38.00
2018-06-09T18:23:59.226Z,38.10
2018-06-09T18:26:27.580Z,38.40
2018-06-09T18:28:55.825Z,38.40
2018-06-09T18:31:24.043Z,43.80
2018-06-09T18:33:52.334Z,48.40
2018-06-09T18:36:20.629Z,51.10
2018-06-09T18:38:48.818Z,53.40
2018-06-09T18:41:17.002Z,55.20
2018-06-09T18:43:45.429Z,57.50
2018-06-09T18:46:13.584Z,59.50
2018-06-09T18:48:41.833Z,59.70
2018-06-09T18:51:10.098Z,61.80
2018-06-09T18:53:38.326Z,64.40
2018-06-09T18:56:06.522Z,66.20
2018-06-09T18:58:34.818Z,69.70
2018-06-09T19:01:03.657Z,70.20
2018-06-09T19:03:31.861Z,72.70
2018-06-09T19:06:00.183Z,73.50
2018-06-09T19:08:28.486Z,70.70
2018-06-09T19:10:56.695Z,71.20
2018-06-09T19:13:24.940Z,71.30
2018-06-09T19:15:53.208Z,73.70
2018-06-09T19:18:21.458Z,74.90
2018-06-09T19:20:49.668Z,78.00
2018-06-09T19:23:18.119Z,79.80
2018-06-09T19:25:46.385Z,79.60
2018-06-09T19:28:14.632Z,80.70
2018-06-09T19:30:42.835Z,83.60
2018-06-09T19:33:11.249Z,88.50
2018-06-09T19:35:39.645Z,90.30
2018-06-09T19:38:08.529Z,91.60
2018-06-09T19:40:36.792Z,92.20
2018-06-09T19:43:05.207Z,93.00
2018-06-09T19:45:33.385Z,92.50
2018-06-09T19:48:01.591Z,94.10
2018-06-09T19:50:29.926Z,94.30
2018-06-09T19:52:58.873Z,95.30
2018-06-09T19:55:27.636Z,95.70
2018-06-09T19:57:55.898Z,98.00
2018-06-09T20:00:24.360Z,96.90
2018-06-09T20:02:52.936Z,97.50
2018-06-09T20:05:21.244Z,97.20
2018-06-09T20:07:49.696Z,99.90
2018-06-09T20:10:18.035Z,99.90
2018-06-09T20:12:46.355Z,99.90
2018-06-09T20:15:14.711Z,99.90
2018-06-09T20:17:43.374Z,99.90
2018-06-09T20:20:11.587Z,99.90
2018-06-09T20:22:39.806Z,99.90
2018-06-09T20:25:08.082Z,99.90
2018-06-09T20:27:36.801Z,99.90
2018-06-09T20:30:05.339Z,99.90
2018-06-09T20:32:33.632Z,99.90
2018-06-09T20:35:02.568Z,99.90
2018-06-09T20:37:31.325Z,99.90
2018-06-09T20:40:00.063Z,99.90
2018-06-09T20:42:28.472Z,99.90
2018-06-09T20:44:57.152Z,99.90
2018-06-09T20:47:25.409Z,99.90
2018-06-09T20:49:54.154Z,99.90
2018-06-09T20:52:24.370Z,99.90
2018-06-09T20:54:53.402Z,99.90
2018-06-09T20:57:21.642Z,99.90
2018-06-09T20:59:49.913Z,99.90
2018-06-09T21:02:18.147Z,99.90
2018-06-09T21:04:46.459Z,99.90
2018-06-09T21:07:14.698Z,99.90
2018-06-09T21:09:42.916Z,99.90
2018-06-09T21:12:11.197Z,99.90
2018-06-09T21:17:08.381Z,99.90
2018-06-09T21:19:42.981Z,99.90
2018-06-09T21:22:12.349Z,99.90
2018-06-09T21:24:40.524Z,99.90
2018-06-09T21:27:14.385Z,99.90
2018-06-09T21:29:49.765Z,99.90
2018-06-09T21:32:23.506Z,99.90
2018-06-09T21:35:04.377Z,99.90
2018-06-09T21:37:39.968Z,99.90
2018-06-09T21:40:19.498Z,99.90
2018-06-09T21:45:28.442Z,99.90
2018-06-09T21:47:56.821Z,99.90
2018-06-09T21:50:25.273Z,99.90
2018-06-09T21:52:53.614Z,99.90
2018-06-09T21:55:22.120Z,99.90
2018-06-09T21:57:50.556Z,99.90
2018-06-09T22:00:19.567Z,99.90
2018-06-09T22:02:47.954Z,99.90
2018-06-09T22:05:19.943Z,99.90
2018-06-09T22:07:48.204Z,99.90
2018-06-09T22:10:16.788Z,99.90
2018-06-09T22:12:45.086Z,99.90
2018-06-09T22:15:13.542Z,99.90
2018-06-09T22:17:41.919Z,99.90
2018-06-09T22:20:10.163Z,99.90
2018-06-09T22:22:38.600Z,99.90
2018-06-09T22:25:07.778Z,99.90
2018-06-09T22:27:35.954Z,99.90
2018-06-09T22:30:04.149Z,99.90
2018-06-09T22:32:32.403Z,99.90
2018-06-09T22:35:00.749Z,99.90
2018-06-09T22:37:28.947Z,99.90
2018-06-09T22:39:57.342Z,99.90
2018-06-09T22:42:25.524Z,99.90
2018-06-09T22:44:53.848Z,99.90
2018-06-09T22:47:22.025Z,99.90
2018-06-09T22:49:50.233Z,99.90
2018-06-09T22:52:18.421Z,99.90
2018-06-09T22:54:46.662Z,99.90
2018-06-09T22:57:14.965Z,99.90
2018-06-09T22:59:43.152Z,99.90
2018-06-09T23:02:11.494Z,99.90
2018-06-09T23:04:39.683Z,99.90
2018-06-09T23:07:07.927Z,99.90
2018-06-09T23:09:36.352Z,99.90
2018-06-09T23:12:05.058Z,99.90
2018-06-09T23:14:33.367Z,99.90
2018-06-09T23:17:01.645Z,99.90
2018-06-09T23:19:29.849Z,99.90
2018-06-09T23:21:58.208Z,99.90
2018-06-09T23:24:26.404Z,99.90
2018-06-09T23:26:54.668Z,99.90
2018-06-09T23:29:22.943Z,99.90
2018-06-09T23:34:19.420Z,99.90
2018-06-09T23:36:48.363Z,99.90
2018-06-09T23:39:16.585Z,99.90
2018-06-09T23:41:44.762Z,99.90
2018-06-09T23:44:12.908Z,99.90
2018-06-09T23:46:41.173Z,99.90
2018-06-09T23:49:09.432Z,99.90
2018-06-09T23:51:37.698Z,99.90
2018-06-09T23:54:06.088Z,99.90
2018-06-09T23:56:34.268Z,99.90
2018-06-09T23:59:02.566Z,99.90
